sensor_id;sensor_type;location;lat;lon;timestamp;pressure;altitude;pressure_sealevel;temperature;humidity
70468;BME280;57934;51.532;7.684;2023-03-03T00:00:38;101100.06;;;0.33;99.76
70468;BME280;57934;51.532;7.684;2023-03-03T00:03:06;101095.69;;;0.34;99.71
70468;BME280;57934;51.532;7.684;2023-03-03T00:05:34;101103.25;;;0.37;99.16
70468;BME280;57934;51.532;7.684;2023-03-03T00:08:00;101105.84;;;0.37;99.50
70468;BME280;57934;51.532;7.684;2023-03-03T00:10:27;101106.59;;;0.26;99.16
70468;BME280;57934;51.532;7.684;2023-03-03T00:12:53;101109.88;;;0.41;98.88
70468;BME280;57934;51.532;7.684;2023-03-03T00:15:22;101109.28;;;0.24;99.32
70468;BME280;57934;51.532;7.684;2023-03-03T00:17:49;101109.06;;;0.28;98.92
70468;BME280;57934;51.532;7.684;2023-03-03T00:20:39;101096.03;;;0.16;99.34
70468;BME280;57934;51.532;7.684;2023-03-03T00:23:30;101097.19;;;0.12;99.15
70468;BME280;57934;51.532;7.684;2023-03-03T00:26:00;101109.84;;;0.04;99.57
70468;BME280;57934;51.532;7.684;2023-03-03T00:28:52;101105.78;;;0.13;100.00
70468;BME280;57934;51.532;7.684;2023-03-03T00:31:42;101102.69;;;-0.05;100.00
70468;BME280;57934;51.532;7.684;2023-03-03T00:36:43;101109.84;;;0.04;100.00
70468;BME280;57934;51.532;7.684;2023-03-03T00:39:30;101112.44;;;0.04;100.00
70468;BME280;57934;51.532;7.684;2023-03-03T00:41:57;101116.59;;;-0.06;100.00
70468;BME280;57934;51.532;7.684;2023-03-03T00:44:43;101118.03;;;-0.02;100.00
70468;BME280;57934;51.532;7.684;2023-03-03T00:49:39;101106.44;;;0.04;100.00
70468;BME280;57934;51.532;7.684;2023-03-03T00:52:15;101111.50;;;0.05;100.00
70468;BME280;57934;51.532;7.684;2023-03-03T00:54:41;101109.94;;;0.03;100.00
70468;BME280;57934;51.532;7.684;2023-03-03T00:57:08;101109.84;;;0.04;100.00
70468;BME280;57934;51.532;7.684;2023-03-03T00:59:36;101114.91;;;0.06;100.00
70468;BME280;57934;51.532;7.684;2023-03-03T01:02:02;101113.69;;;0.11;100.00
70468;BME280;57934;51.532;7.684;2023-03-03T01:04:28;101109.59;;;0.20;100.00
70468;BME280;57934;51.532;7.684;2023-03-03T01:06:54;101107.97;;;0.19;100.00
70468;BME280;57934;51.532;7.684;2023-03-03T01:09:20;101106.94;;;0.21;100.00
70468;BME280;57934;51.532;7.684;2023-03-03T01:11:46;101115.94;;;0.16;100.00
70468;BME280;57934;51.532;7.684;2023-03-03T01:14:13;101116.69;;;0.18;100.00
70468;BME280;57934;51.532;7.684;2023-03-03T01:16:39;101113.97;;;0.19;100.00
70468;BME280;57934;51.532;7.684;2023-03-03T01:19:06;101116.78;;;0.16;100.00
70468;BME280;57934;51.532;7.684;2023-03-03T01:21:33;101114.91;;;0.18;99.84
70468;BME280;57934;51.532;7.684;2023-03-03T01:23:59;101111.28;;;0.08;100.00
70468;BME280;57934;51.532;7.684;2023-03-03T01:26:25;101102.78;;;0.06;100.00
70468;BME280;57934;51.532;7.684;2023-03-03T01:28:51;101101.13;;;0.05;100.00
70468;BME280;57934;51.532;7.684;2023-03-03T01:31:17;101103.31;;;0.11;100.00
70468;BME280;57934;51.532;7.684;2023-03-03T01:33:43;101105.44;;;0.17;100.00
70468;BME280;57934;51.532;7.684;2023-03-03T01:36:09;101095.72;;;0.08;100.00
70468;BME280;57934;51.532;7.684;2023-03-03T01:38:36;101092.59;;;0.16;99.94
70468;BME280;57934;51.532;7.684;2023-03-03T01:41:03;101086.19;;;0.21;99.87
70468;BME280;57934;51.532;7.684;2023-03-03T01:43:29;101092.59;;;0.29;100.00
70468;BME280;57934;51.532;7.684;2023-03-03T01:48:33;101105.97;;;0.22;99.81
70468;BME280;57934;51.532;7.684;2023-03-03T01:51:04;101117.59;;;0.30;99.84
70468;BME280;57934;51.532;7.684;2023-03-03T01:56:07;101112.84;;;0.11;99.50
70468;BME280;57934;51.532;7.684;2023-03-03T01:58:40;101108.28;;;0.14;99.82
70468;BME280;57934;51.532;7.684;2023-03-03T02:01:11;101090.03;;;0.16;99.74
70468;BME280;57934;51.532;7.684;2023-03-03T02:03:40;101095.13;;;0.05;100.00
70468;BME280;57934;51.532;7.684;2023-03-03T02:06:11;101087.75;;;0.11;99.71
70468;BME280;57934;51.532;7.684;2023-03-03T02:08:47;101073.22;;;0.21;100.00
70468;BME280;57934;51.532;7.684;2023-03-03T02:11:17;101074.00;;;0.35;100.00
70468;BME280;57934;51.532;7.684;2023-03-03T02:13:43;101084.47;;;0.46;100.00
70468;BME280;57934;51.532;7.684;2023-03-03T02:16:09;101091.78;;;0.52;99.01
70468;BME280;57934;51.532;7.684;2023-03-03T02:18:36;101099.94;;;0.35;97.58
70468;BME280;57934;51.532;7.684;2023-03-03T02:21:14;101100.19;;;0.19;98.44
70468;BME280;57934;51.532;7.684;2023-03-03T02:26:23;101108.28;;;0.02;99.04
70468;BME280;57934;51.532;7.684;2023-03-03T02:28:55;101106.22;;;-0.06;99.53
70468;BME280;57934;51.532;7.684;2023-03-03T02:31:24;101110.03;;;-0.12;100.00
70468;BME280;57934;51.532;7.684;2023-03-03T02:33:51;101112.56;;;-0.10;99.85
70468;BME280;57934;51.532;7.684;2023-03-03T02:36:23;101116.50;;;-0.17;100.00
70468;BME280;57934;51.532;7.684;2023-03-03T02:44:03;101112.97;;;-0.16;100.00
70468;BME280;57934;51.532;7.684;2023-03-03T02:46:37;101114.09;;;-0.20;100.00
70468;BME280;57934;51.532;7.684;2023-03-03T02:49:12;101113.03;;;-0.18;100.00
70468;BME280;57934;51.532;7.684;2023-03-03T02:51:39;101112.31;;;-0.07;100.00
70468;BME280;57934;51.532;7.684;2023-03-03T02:54:06;101109.00;;;-0.09;100.00
70468;BME280;57934;51.532;7.684;2023-03-03T02:56:53;101092.09;;;-0.15;100.00
70468;BME280;57934;51.532;7.684;2023-03-03T02:59:20;101101.31;;;-0.11;100.00
70468;BME280;57934;51.532;7.684;2023-03-03T03:01:48;101099.16;;;-0.04;100.00
70468;BME280;57934;51.532;7.684;2023-03-03T03:04:22;101097.91;;;0.02;100.00
70468;BME280;57934;51.532;7.684;2023-03-03T03:06:51;101100.09;;;0.08;100.00
70468;BME280;57934;51.532;7.684;2023-03-03T03:09:20;101103.72;;;0.05;100.00
70468;BME280;57934;51.532;7.684;2023-03-03T03:11:48;101096.69;;;0.07;100.00
70468;BME280;57934;51.532;7.684;2023-03-03T03:14:17;101097.28;;;0.11;100.00
70468;BME280;57934;51.532;7.684;2023-03-03T03:16:43;101097.78;;;0.16;100.00
70468;BME280;57934;51.532;7.684;2023-03-03T03:19:10;101100.38;;;0.16;100.00
70468;BME280;57934;51.532;7.684;2023-03-03T03:21:37;101105.25;;;0.20;100.00
70468;BME280;57934;51.532;7.684;2023-03-03T03:24:05;101100.72;;;0.11;100.00
70468;BME280;57934;51.532;7.684;2023-03-03T03:26:32;101102.56;;;0.09;100.00
70468;BME280;57934;51.532;7.684;2023-03-03T03:28:59;101108.38;;;0.13;100.00
70468;BME280;57934;51.532;7.684;2023-03-03T03:31:25;101116.06;;;0.02;100.00
70468;BME280;57934;51.532;7.684;2023-03-03T03:33:51;101116.69;;;0.05;100.00
70468;BME280;57934;51.532;7.684;2023-03-03T03:36:18;101120.00;;;0.07;100.00
70468;BME280;57934;51.532;7.684;2023-03-03T03:38:45;101126.44;;;0.14;100.00
70468;BME280;57934;51.532;7.684;2023-03-03T03:41:11;101122.50;;;0.09;100.00
70468;BME280;57934;51.532;7.684;2023-03-03T03:43:38;101121.97;;;0.04;100.00
70468;BME280;57934;51.532;7.684;2023-03-03T03:46:04;101130.69;;;0.15;100.00
70468;BME280;57934;51.532;7.684;2023-03-03T03:48:32;101129.44;;;0.08;100.00
70468;BME280;57934;51.532;7.684;2023-03-03T03:50:59;101125.69;;;-0.01;100.00
70468;BME280;57934;51.532;7.684;2023-03-03T03:53:27;101122.06;;;0.02;100.00
70468;BME280;57934;51.532;7.684;2023-03-03T03:55:53;101124.34;;;0.07;100.00
70468;BME280;57934;51.532;7.684;2023-03-03T03:58:19;101130.66;;;0.03;100.00
70468;BME280;57934;51.532;7.684;2023-03-03T04:01:01;101125.69;;;-0.01;100.00
70468;BME280;57934;51.532;7.684;2023-03-03T04:03:28;101123.72;;;0.03;100.00
70468;BME280;57934;51.532;7.684;2023-03-03T04:05:55;101120.00;;;0.07;100.00
70468;BME280;57934;51.532;7.684;2023-03-03T04:08:21;101131.28;;;0.06;100.00
70468;BME280;57934;51.532;7.684;2023-03-03T04:10:47;101132.75;;;-0.03;100.00
70468;BME280;57934;51.532;7.684;2023-03-03T04:13:14;101118.84;;;-0.02;100.00
70468;BME280;57934;51.532;7.684;2023-03-03T04:15:40;101128.41;;;-0.02;100.00
70468;BME280;57934;51.532;7.684;2023-03-03T04:18:07;101120.09;;;0.06;100.00
70468;BME280;57934;51.532;7.684;2023-03-03T04:20:33;101123.22;;;0.11;100.00
70468;BME280;57934;51.532;7.684;2023-03-03T04:22:59;101133.06;;;0.06;100.00
70468;BME280;57934;51.532;7.684;2023-03-03T04:25:25;101136.47;;;0.06;100.00
70468;BME280;57934;51.532;7.684;2023-03-03T04:27:53;101136.59;;;0.05;100.00
70468;BME280;57934;51.532;7.684;2023-03-03T04:30:21;101133.06;;;0.06;100.00
70468;BME280;57934;51.532;7.684;2023-03-03T04:32:49;101130.78;;;0.01;100.00
70468;BME280;57934;51.532;7.684;2023-03-03T04:35:20;101138.56;;;0.01;100.00
70468;BME280;57934;51.532;7.684;2023-03-03T04:37:46;101136.06;;;-0.01;100.00
70468;BME280;57934;51.532;7.684;2023-03-03T04:40:12;101136.25;;;-0.04;100.00
70468;BME280;57934;51.532;7.684;2023-03-03T04:42:40;101130.25;;;-0.04;100.00
70468;BME280;57934;51.532;7.684;2023-03-03T04:45:08;101133.38;;;0.01;100.00
70468;BME280;57934;51.532;7.684;2023-03-03T04:47:35;101130.59;;;0.04;100.00
70468;BME280;57934;51.532;7.684;2023-03-03T04:50:01;101133.88;;;0.06;100.00
70468;BME280;57934;51.532;7.684;2023-03-03T04:52:30;101136.06;;;0.12;100.00
70468;BME280;57934;51.532;7.684;2023-03-03T04:54:57;101125.06;;;0.09;99.82
70468;BME280;57934;51.532;7.684;2023-03-03T04:57:23;101131.63;;;0.14;100.00
70468;BME280;57934;51.532;7.684;2023-03-03T04:59:50;101120.72;;;0.22;99.97
70468;BME280;57934;51.532;7.684;2023-03-03T05:02:18;101124.53;;;0.16;99.98
70468;BME280;57934;51.532;7.684;2023-03-03T05:04:45;101130.69;;;0.15;100.00
70468;BME280;57934;51.532;7.684;2023-03-03T05:07:11;101136.38;;;0.20;100.00
70468;BME280;57934;51.532;7.684;2023-03-03T05:09:37;101140.19;;;0.28;99.87
70468;BME280;57934;51.532;7.684;2023-03-03T05:12:03;101137.44;;;0.18;99.80
70468;BME280;57934;51.532;7.684;2023-03-03T05:14:29;101130.88;;;0.12;99.56
70468;BME280;57934;51.532;7.684;2023-03-03T05:16:56;101122.50;;;0.21;99.99
70468;BME280;57934;51.532;7.684;2023-03-03T05:19:22;101128.38;;;0.23;99.57
70468;BME280;57934;51.532;7.684;2023-03-03T05:21:49;101133.47;;;0.25;99.99
70468;BME280;57934;51.532;7.684;2023-03-03T05:24:15;101139.28;;;0.29;99.24
70468;BME280;57934;51.532;7.684;2023-03-03T05:26:41;101138.25;;;0.18;99.41
70468;BME280;57934;51.532;7.684;2023-03-03T05:29:07;101140.09;;;0.16;99.56
70468;BME280;57934;51.532;7.684;2023-03-03T05:31:34;101138.25;;;0.18;99.58
70468;BME280;57934;51.532;7.684;2023-03-03T05:34:00;101141.66;;;0.19;99.08
70468;BME280;57934;51.532;7.684;2023-03-03T05:36:26;101135.13;;;0.26;99.47
70468;BME280;57934;51.532;7.684;2023-03-03T05:38:52;101120.50;;;0.25;99.14
70468;BME280;57934;51.532;7.684;2023-03-03T05:41:19;101124.47;;;0.18;98.44
70468;BME280;57934;51.532;7.684;2023-03-03T05:43:45;101131.50;;;0.16;98.82
70468;BME280;57934;51.532;7.684;2023-03-03T05:46:11;101136.06;;;0.12;98.32
70468;BME280;57934;51.532;7.684;2023-03-03T05:48:37;101134.22;;;0.14;98.63
70468;BME280;57934;51.532;7.684;2023-03-03T05:51:03;101135.66;;;0.18;99.07
70468;BME280;57934;51.532;7.684;2023-03-03T05:53:30;101134.31;;;0.13;98.36
70468;BME280;57934;51.532;7.684;2023-03-03T05:55:56;101131.28;;;0.06;98.63
70468;BME280;57934;51.532;7.684;2023-03-03T05:58:22;101145.19;;;0.05;98.31
70468;BME280;57934;51.532;7.684;2023-03-03T06:00:48;101148.63;;;0.06;97.77
70468;BME280;57934;51.532;7.684;2023-03-03T06:03:14;101156.81;;;-0.01;97.66
70468;BME280;57934;51.532;7.684;2023-03-03T06:05:41;101151.81;;;-0.04;97.95
70468;BME280;57934;51.532;7.684;2023-03-03T06:08:08;101150.50;;;0.04;98.38
70468;BME280;57934;51.532;7.684;2023-03-03T06:10:34;101154.34;;;0.11;98.61
70468;BME280;57934;51.532;7.684;2023-03-03T06:13:03;101150.88;;;0.10;98.24
70468;BME280;57934;51.532;7.684;2023-03-03T06:15:30;101147.59;;;0.08;98.60
70468;BME280;57934;51.532;7.684;2023-03-03T06:17:56;101149.34;;;0.08;98.22
70468;BME280;57934;51.532;7.684;2023-03-03T06:20:22;101157.56;;;0.14;98.85
70468;BME280;57934;51.532;7.684;2023-03-03T06:22:48;101168.44;;;0.19;97.99
70468;BME280;57934;51.532;7.684;2023-03-03T06:25:14;101168.00;;;0.13;98.06
70468;BME280;57934;51.532;7.684;2023-03-03T06:27:40;101170.50;;;0.14;98.08
70468;BME280;57934;51.532;7.684;2023-03-03T06:30:07;101170.50;;;0.14;98.14
70468;BME280;57934;51.532;7.684;2023-03-03T06:32:33;101174.13;;;0.12;98.74
70468;BME280;57934;51.532;7.684;2023-03-03T06:34:59;101171.44;;;0.13;98.55
70468;BME280;57934;51.532;7.684;2023-03-03T06:37:25;101177.56;;;0.25;98.49
70468;BME280;57934;51.532;7.684;2023-03-03T06:39:51;101177.66;;;0.23;97.97
70468;BME280;57934;51.532;7.684;2023-03-03T06:42:18;101180.44;;;0.20;98.30
70468;BME280;57934;51.532;7.684;2023-03-03T06:44:44;101173.63;;;0.19;97.90
70468;BME280;57934;51.532;7.684;2023-03-03T06:47:10;101190.94;;;0.19;98.49
70468;BME280;57934;51.532;7.684;2023-03-03T06:49:36;101193.13;;;0.12;98.31
70468;BME280;57934;51.532;7.684;2023-03-03T06:52:11;101197.16;;;0.16;98.79
70468;BME280;57934;51.532;7.684;2023-03-03T06:54:38;101188.44;;;0.17;98.52
70468;BME280;57934;51.532;7.684;2023-03-03T06:57:26;101197.78;;;0.33;98.31
70468;BME280;57934;51.532;7.684;2023-03-03T07:00:14;101195.69;;;0.38;97.38
70468;BME280;57934;51.532;7.684;2023-03-03T07:02:41;101188.75;;;0.26;97.18
70468;BME280;57934;51.532;7.684;2023-03-03T07:05:16;101195.00;;;0.36;96.82
70468;BME280;57934;51.532;7.684;2023-03-03T07:07:43;101196.13;;;0.32;96.70
70468;BME280;57934;51.532;7.684;2023-03-03T07:10:19;101207.22;;;0.34;96.44
70468;BME280;57934;51.532;7.684;2023-03-03T07:12:46;101202.97;;;0.33;96.18
70468;BME280;57934;51.532;7.684;2023-03-03T07:15:22;101204.00;;;0.30;96.47
70468;BME280;57934;51.532;7.684;2023-03-03T07:17:53;101211.78;;;0.30;96.67
70468;BME280;57934;51.532;7.684;2023-03-03T07:20:22;101207.75;;;0.26;96.43
70468;BME280;57934;51.532;7.684;2023-03-03T07:22:48;101210.84;;;0.31;96.39
70468;BME280;57934;51.532;7.684;2023-03-03T07:25:33;101215.94;;;0.33;96.58
70468;BME280;57934;51.532;7.684;2023-03-03T07:30:47;101225.78;;;0.28;96.07
70468;BME280;57934;51.532;7.684;2023-03-03T07:33:28;101226.19;;;0.34;96.16
70468;BME280;57934;51.532;7.684;2023-03-03T07:35:57;101221.84;;;0.35;96.12
70468;BME280;57934;51.532;7.684;2023-03-03T07:38:32;101232.94;;;0.37;95.96
70468;BME280;57934;51.532;7.684;2023-03-03T07:41:01;101229.94;;;0.43;95.30
70468;BME280;57934;51.532;7.684;2023-03-03T07:48:43;101238.16;;;0.50;95.21
70468;BME280;57934;51.532;7.684;2023-03-03T07:51:18;101242.59;;;0.47;94.78
70468;BME280;57934;51.532;7.684;2023-03-03T07:53:47;101245.81;;;0.51;94.71
70468;BME280;57934;51.532;7.684;2023-03-03T07:56:19;101248.09;;;0.43;94.53
70468;BME280;57934;51.532;7.684;2023-03-03T07:58:47;101247.59;;;0.51;94.78
70468;BME280;57934;51.532;7.684;2023-03-03T08:01:36;101257.75;;;0.54;95.02
70468;BME280;57934;51.532;7.684;2023-03-03T08:04:28;101250.88;;;0.65;94.82
70468;BME280;57934;51.532;7.684;2023-03-03T08:06:59;101256.81;;;0.55;95.23
70468;BME280;57934;51.532;7.684;2023-03-03T08:12:15;101258.38;;;0.57;95.11
70468;BME280;57934;51.532;7.684;2023-03-03T08:14:43;101257.84;;;0.52;94.37
70468;BME280;57934;51.532;7.684;2023-03-03T08:17:18;101266.06;;;0.46;94.39
70468;BME280;57934;51.532;7.684;2023-03-03T08:19:45;101260.56;;;0.63;94.37
70468;BME280;57934;51.532;7.684;2023-03-03T08:22:15;101267.16;;;0.80;94.03
70468;BME280;57934;51.532;7.684;2023-03-03T08:24:42;101266.13;;;0.70;93.67
70468;BME280;57934;51.532;7.684;2023-03-03T08:27:08;101273.63;;;0.75;93.83
70468;BME280;57934;51.532;7.684;2023-03-03T08:29:34;101273.09;;;0.82;93.38
70468;BME280;57934;51.532;7.684;2023-03-03T08:32:00;101271.53;;;0.92;92.75
70468;BME280;57934;51.532;7.684;2023-03-03T08:34:26;101279.59;;;1.01;92.48
70468;BME280;57934;51.532;7.684;2023-03-03T08:36:52;101283.16;;;0.87;92.22
70468;BME280;57934;51.532;7.684;2023-03-03T08:39:18;101292.72;;;0.86;91.82
70468;BME280;57934;51.532;7.684;2023-03-03T08:41:44;101288.13;;;0.77;91.92
70468;BME280;57934;51.532;7.684;2023-03-03T08:44:11;101287.53;;;0.86;92.20
70468;BME280;57934;51.532;7.684;2023-03-03T08:46:37;101286.44;;;1.02;91.82
70468;BME280;57934;51.532;7.684;2023-03-03T08:49:03;101288.44;;;0.98;91.60
70468;BME280;57934;51.532;7.684;2023-03-03T08:51:29;101294.81;;;0.81;92.18
70468;BME280;57934;51.532;7.684;2023-03-03T08:53:56;101291.06;;;0.73;92.85
70468;BME280;57934;51.532;7.684;2023-03-03T08:56:22;101288.25;;;0.76;93.15
70468;BME280;57934;51.532;7.684;2023-03-03T08:58:48;101293.34;;;0.90;93.73
70468;BME280;57934;51.532;7.684;2023-03-03T09:01:14;101284.59;;;1.04;93.10
70468;BME280;57934;51.532;7.684;2023-03-03T09:03:44;101294.34;;;1.00;92.46
70468;BME280;57934;51.532;7.684;2023-03-03T09:06:10;101286.56;;;0.87;92.66
70468;BME280;57934;51.532;7.684;2023-03-03T09:08:36;101293.53;;;1.00;92.80
70468;BME280;57934;51.532;7.684;2023-03-03T09:11:10;101290.28;;;1.09;92.07
70468;BME280;57934;51.532;7.684;2023-03-03T09:13:37;101292.78;;;1.10;92.04
70468;BME280;57934;51.532;7.684;2023-03-03T09:16:13;101295.81;;;1.04;92.46
70468;BME280;57934;51.532;7.684;2023-03-03T09:18:39;101302.34;;;1.10;92.04
70468;BME280;57934;51.532;7.684;2023-03-03T09:21:27;101300.06;;;1.05;92.10
70468;BME280;57934;51.532;7.684;2023-03-03T09:23:58;101301.53;;;1.09;92.13
70468;BME280;57934;51.532;7.684;2023-03-03T09:31:45;101288.94;;;1.53;89.86
70468;BME280;57934;51.532;7.684;2023-03-03T09:36:50;101302.53;;;1.56;89.27
70468;BME280;57934;51.532;7.684;2023-03-03T09:39:25;101299.97;;;1.67;88.68
70468;BME280;57934;51.532;7.684;2023-03-03T09:41:58;101311.09;;;1.46;88.06
70468;BME280;57934;51.532;7.684;2023-03-03T09:56:11;101311.91;;;1.83;86.44
70468;BME280;57934;51.532;7.684;2023-03-03T10:01:39;101314.81;;;2.02;86.18
70468;BME280;57934;51.532;7.684;2023-03-03T10:09:51;101315.94;;;2.22;84.44
70468;BME280;57934;51.532;7.684;2023-03-03T10:15:26;101323.16;;;1.71;86.60
70468;BME280;57934;51.532;7.684;2023-03-03T10:18:17;101326.88;;;1.79;86.91
70468;BME280;57934;51.532;7.684;2023-03-03T10:21:18;101329.81;;;1.99;86.49
70468;BME280;57934;51.532;7.684;2023-03-03T10:24:04;101321.63;;;1.92;86.59
70468;BME280;57934;51.532;7.684;2023-03-03T10:29:25;101338.03;;;1.92;86.37
70468;BME280;57934;51.532;7.684;2023-03-03T10:40:57;101354.41;;;1.82;86.14
70468;BME280;57934;51.532;7.684;2023-03-03T10:46:15;101348.47;;;1.69;87.42
70468;BME280;57934;51.532;7.684;2023-03-03T10:49:07;101338.59;;;1.85;87.57
70468;BME280;57934;51.532;7.684;2023-03-03T11:08:15;101332.72;;;2.65;83.70
70468;BME280;57934;51.532;7.684;2023-03-03T11:11:14;101332.22;;;2.59;84.03
70468;BME280;57934;51.532;7.684;2023-03-03T11:14:08;101333.19;;;2.70;83.78
70468;BME280;57934;51.532;7.684;2023-03-03T11:16:49;101338.63;;;2.67;83.10
70468;BME280;57934;51.532;7.684;2023-03-03T11:19:37;101334.81;;;2.48;83.70
70468;BME280;57934;51.532;7.684;2023-03-03T11:33:02;101332.34;;;2.47;84.11
70468;BME280;57934;51.532;7.684;2023-03-03T11:35:44;101329.63;;;2.59;84.11
70468;BME280;57934;51.532;7.684;2023-03-03T11:40:55;101321.78;;;2.48;84.50
70468;BME280;57934;51.532;7.684;2023-03-03T11:45:56;101321.59;;;2.74;83.67
70468;BME280;57934;51.532;7.684;2023-03-03T11:56:47;101313.56;;;2.66;83.30
70468;BME280;57934;51.532;7.684;2023-03-03T12:02:25;101307.16;;;3.15;82.37
70468;BME280;57934;51.532;7.684;2023-03-03T12:04:58;101304.69;;;3.13;81.51
70468;BME280;57934;51.532;7.684;2023-03-03T12:10:02;101302.44;;;2.75;83.22
70468;BME280;57934;51.532;7.684;2023-03-03T12:27:02;101292.25;;;2.83;82.77
70468;BME280;57934;51.532;7.684;2023-03-03T12:29:45;101291.06;;;2.87;82.00
70468;BME280;57934;51.532;7.684;2023-03-03T12:38:03;101283.56;;;3.39;80.37
70468;BME280;57934;51.532;7.684;2023-03-03T12:40:37;101289.81;;;3.47;80.26
70468;BME280;57934;51.532;7.684;2023-03-03T12:46:41;101284.69;;;3.02;80.46
70468;BME280;57934;51.532;7.684;2023-03-03T12:49:05;101283.03;;;2.90;81.33
70468;BME280;57934;51.532;7.684;2023-03-03T12:51:41;101288.59;;;3.08;81.16
70468;BME280;57934;51.532;7.684;2023-03-03T12:54:52;101288.94;;;3.15;80.75
70468;BME280;57934;51.532;7.684;2023-03-03T13:10:44;101284.41;;;3.71;78.85
70468;BME280;57934;51.532;7.684;2023-03-03T13:13:23;101279.66;;;4.09;77.41
70468;BME280;57934;51.532;7.684;2023-03-03T13:16:01;101272.16;;;4.15;76.20
70468;BME280;57934;51.532;7.684;2023-03-03T13:21:41;101279.25;;;3.92;74.86
70468;BME280;57934;51.532;7.684;2023-03-03T13:24:37;101273.03;;;4.04;76.61
70468;BME280;57934;51.532;7.684;2023-03-03T13:27:16;101273.97;;;4.03;75.55
70468;BME280;57934;51.532;7.684;2023-03-03T13:32:44;101266.69;;;3.65;77.22
70468;BME280;57934;51.532;7.684;2023-03-03T13:35:37;101270.00;;;3.88;76.68
70468;BME280;57934;51.532;7.684;2023-03-03T13:38:12;101273.16;;;4.24;76.22
70468;BME280;57934;51.532;7.684;2023-03-03T13:40:44;101266.44;;;4.52;74.83
70468;BME280;57934;51.532;7.684;2023-03-03T13:43:21;101271.72;;;4.62;73.54
70468;BME280;57934;51.532;7.684;2023-03-03T13:46:09;101270.38;;;4.67;73.37
70468;BME280;57934;51.532;7.684;2023-03-03T13:49:18;101272.91;;;4.78;72.59
70468;BME280;57934;51.532;7.684;2023-03-03T13:52:04;101273.38;;;4.93;73.40
70468;BME280;57934;51.532;7.684;2023-03-03T13:54:52;101266.31;;;4.74;72.15
70468;BME280;57934;51.532;7.684;2023-03-03T14:06:04;101261.81;;;4.35;73.52
70468;BME280;57934;51.532;7.684;2023-03-03T14:11:11;101250.28;;;4.37;73.61
70468;BME280;57934;51.532;7.684;2023-03-03T14:19:27;101242.28;;;4.60;74.20
70468;BME280;57934;51.532;7.684;2023-03-03T14:22:18;101245.97;;;4.78;73.13
70468;BME280;57934;51.532;7.684;2023-03-03T14:27:33;101239.09;;;4.56;73.36
70468;BME280;57934;51.532;7.684;2023-03-03T14:38:15;101239.03;;;4.37;73.77
70468;BME280;57934;51.532;7.684;2023-03-03T14:40:44;101234.88;;;4.34;73.21
70468;BME280;57934;51.532;7.684;2023-03-03T14:43:37;101228.19;;;4.41;73.91
70468;BME280;57934;51.532;7.684;2023-03-03T14:48:57;101232.44;;;4.73;73.49
70468;BME280;57934;51.532;7.684;2023-03-03T14:54:10;101218.91;;;4.89;72.63
70468;BME280;57934;51.532;7.684;2023-03-03T14:57:04;101218.88;;;4.79;73.34
70468;BME280;57934;51.532;7.684;2023-03-03T14:59:32;101221.47;;;4.79;73.23
70468;BME280;57934;51.532;7.684;2023-03-03T15:02:26;101218.50;;;4.93;72.84
70468;BME280;57934;51.532;7.684;2023-03-03T15:05:32;101217.41;;;4.96;72.30
70468;BME280;57934;51.532;7.684;2023-03-03T15:10:30;101215.84;;;4.74;71.98
70468;BME280;57934;51.532;7.684;2023-03-03T15:12:57;101214.91;;;4.85;72.68
70468;BME280;57934;51.532;7.684;2023-03-03T15:15:25;101208.88;;;4.94;72.44
70468;BME280;57934;51.532;7.684;2023-03-03T15:17:56;101218.66;;;5.01;72.94
70468;BME280;57934;51.532;7.684;2023-03-03T15:28:58;101212.09;;;4.36;73.42
70468;BME280;57934;51.532;7.684;2023-03-03T15:34:20;101204.03;;;3.97;75.43
70468;BME280;57934;51.532;7.684;2023-03-03T15:56:55;101190.75;;;4.00;75.29
70468;BME280;57934;51.532;7.684;2023-03-03T16:02:10;101186.91;;;3.83;76.89
70468;BME280;57934;51.532;7.684;2023-03-03T16:04:51;101185.88;;;3.75;76.88
70468;BME280;57934;51.532;7.684;2023-03-03T16:13:01;101182.25;;;3.45;78.33
70468;BME280;57934;51.532;7.684;2023-03-03T16:21:50;101186.13;;;3.19;79.67
70468;BME280;57934;51.532;7.684;2023-03-03T16:27:16;101178.66;;;3.14;80.30
70468;BME280;57934;51.532;7.684;2023-03-03T16:40:23;101188.56;;;2.77;80.91
70468;BME280;57934;51.532;7.684;2023-03-03T16:43:14;101182.53;;;2.65;81.46
70468;BME280;57934;51.532;7.684;2023-03-03T16:45:43;101184.94;;;2.57;81.73
70468;BME280;57934;51.532;7.684;2023-03-03T16:51:07;101181.97;;;2.50;82.40
70468;BME280;57934;51.532;7.684;2023-03-03T16:54:01;101188.47;;;2.45;82.70
70468;BME280;57934;51.532;7.684;2023-03-03T17:05:05;101192.25;;;2.18;83.98
70468;BME280;57934;51.532;7.684;2023-03-03T17:08:11;101201.47;;;2.11;84.10
70468;BME280;57934;51.532;7.684;2023-03-03T17:11:01;101200.97;;;2.06;84.20
70468;BME280;57934;51.532;7.684;2023-03-03T17:19:47;101205.03;;;1.86;85.65
70468;BME280;57934;51.532;7.684;2023-03-03T17:22:20;101207.75;;;1.84;85.37
70468;BME280;57934;51.532;7.684;2023-03-03T17:25:11;101215.78;;;1.81;85.80
70468;BME280;57934;51.532;7.684;2023-03-03T17:43:38;101219.09;;;1.48;87.39
70468;BME280;57934;51.532;7.684;2023-03-03T17:46:17;101218.50;;;1.45;87.03
70468;BME280;57934;51.532;7.684;2023-03-03T17:59:56;101225.53;;;1.18;88.10
70468;BME280;57934;51.532;7.684;2023-03-03T18:10:24;101241.19;;;1.06;89.17
70468;BME280;57934;51.532;7.684;2023-03-03T18:13:12;101236.81;;;1.06;89.23
70468;BME280;57934;51.532;7.684;2023-03-03T18:15:57;101236.28;;;1.01;89.11
70468;BME280;57934;51.532;7.684;2023-03-03T18:19:01;101240.44;;;1.04;89.79
70468;BME280;57934;51.532;7.684;2023-03-03T18:21:42;101239.00;;;1.00;89.89
70468;BME280;57934;51.532;7.684;2023-03-03T18:26:51;101237.03;;;1.03;90.19
70468;BME280;57934;51.532;7.684;2023-03-03T18:29:25;101242.00;;;1.06;90.07
70468;BME280;57934;51.532;7.684;2023-03-03T18:36:56;101254.47;;;1.01;90.20
70468;BME280;57934;51.532;7.684;2023-03-03T18:39:47;101241.81;;;0.97;90.46
70468;BME280;57934;51.532;7.684;2023-03-03T18:44:41;101254.19;;;0.93;90.83